createdAt,value
2018-07-20T00:02:21.150Z,3.20
2018-07-20T00:04:48.943Z,3.53
2018-07-20T00:07:16.664Z,2.93
2018-07-20T00:09:44.504Z,2.43
2018-07-20T00:12:12.271Z,3.43
2018-07-20T00:14:40.145Z,3.20
2018-07-20T00:17:07.839Z,3.90
2018-07-20T00:19:35.659Z,3.80
2018-07-20T00:22:03.521Z,3.70
2018-07-20T00:24:31.296Z,3.20
2018-07-20T00:26:59.047Z,3.63
2018-07-20T00:29:26.846Z,3.80
2018-07-20T00:31:54.606Z,3.87
2018-07-20T00:34:22.398Z,4.40
2018-07-20T00:36:50.163Z,3.97
2018-07-20T00:39:18.033Z,4.80
2018-07-20T00:41:45.814Z,5.00
2018-07-20T00:44:13.605Z,6.07
2018-07-20T00:46:41.438Z,5.53
2018-07-20T00:49:09.244Z,5.30
2018-07-20T00:51:37.025Z,6.03
2018-07-20T00:54:04.852Z,7.07
2018-07-20T00:56:32.774Z,5.63
2018-07-20T00:59:00.445Z,6.10
2018-07-20T01:01:28.210Z,5.60
2018-07-20T01:03:55.942Z,5.67
2018-07-20T01:06:23.718Z,5.33
2018-07-20T01:08:51.475Z,5.20
2018-07-20T01:11:19.319Z,5.67
2018-07-20T01:13:47.096Z,5.60
2018-07-20T01:16:14.821Z,5.77
2018-07-20T01:18:42.630Z,4.90
2018-07-20T01:21:10.470Z,5.60
2018-07-20T01:23:38.251Z,5.10
2018-07-20T01:26:06.107Z,4.60
2018-07-20T01:28:33.847Z,5.40
2018-07-20T01:31:01.656Z,4.80
2018-07-20T01:33:29.419Z,4.77
2018-07-20T01:35:57.223Z,5.20
2018-07-20T01:38:25.079Z,5.57
2018-07-20T01:40:52.810Z,5.20
2018-07-20T01:43:20.630Z,4.83
2018-07-20T01:45:48.383Z,5.30
2018-07-20T01:48:16.177Z,4.70
2018-07-20T01:50:44.005Z,4.70
2018-07-20T01:53:11.669Z,4.77
2018-07-20T01:55:39.458Z,4.97
2018-07-20T01:58:07.290Z,5.30
2018-07-20T02:00:35.039Z,4.70
2018-07-20T02:03:02.835Z,4.40
2018-07-20T02:05:31.169Z,4.57
2018-07-20T02:07:58.957Z,4.83
2018-07-20T02:10:26.722Z,4.87
2018-07-20T02:12:54.527Z,4.70
2018-07-20T02:15:22.281Z,4.10
2018-07-20T02:17:50.118Z,4.40
2018-07-20T02:20:17.879Z,4.37
2018-07-20T02:22:45.637Z,4.70
2018-07-20T02:25:13.464Z,5.03
2018-07-20T02:27:41.302Z,3.93
2018-07-20T02:30:09.088Z,4.93
2018-07-20T02:32:36.871Z,4.50
2018-07-20T02:35:05.117Z,5.30
2018-07-20T02:37:32.903Z,4.40
2018-07-20T02:40:00.619Z,4.63
2018-07-20T02:42:28.399Z,4.90
2018-07-20T02:44:56.194Z,10.00
2018-07-20T02:47:24.023Z,8.33
2018-07-20T02:49:51.792Z,5.80
2018-07-20T02:52:19.514Z,4.43
2018-07-20T02:54:47.268Z,4.47
2018-07-20T02:57:15.200Z,4.63
2018-07-20T02:59:42.962Z,4.60
2018-07-20T03:02:10.723Z,4.77
2018-07-20T03:04:38.487Z,4.77
2018-07-20T03:07:06.315Z,4.50
2018-07-20T03:09:34.159Z,4.70
2018-07-20T03:12:01.977Z,4.83
2018-07-20T03:14:29.719Z,5.30
2018-07-20T03:16:57.551Z,4.77
2018-07-20T03:19:25.266Z,5.07
2018-07-20T03:21:53.299Z,4.90
2018-07-20T03:24:21.114Z,5.90
2018-07-20T03:26:48.880Z,5.57
2018-07-20T03:29:16.654Z,5.47
2018-07-20T03:31:44.351Z,6.00
2018-07-20T03:34:12.214Z,5.77
2018-07-20T03:36:39.969Z,5.90
2018-07-20T03:39:08.598Z,6.17
2018-07-20T03:41:36.998Z,6.33
2018-07-20T03:44:05.050Z,6.30
2018-07-20T03:46:32.843Z,6.13
2018-07-20T03:49:00.670Z,5.90
2018-07-20T03:51:28.790Z,6.13
2018-07-20T03:53:56.425Z,5.73
2018-07-20T03:56:24.183Z,6.00
2018-07-20T03:58:52.804Z,5.27
2018-07-20T04:01:20.570Z,6.27
2018-07-20T04:03:48.382Z,7.40
2018-07-20T04:06:16.100Z,5.90
2018-07-20T04:08:43.883Z,6.40
2018-07-20T04:11:11.678Z,6.67
2018-07-20T04:13:39.435Z,6.63
2018-07-20T04:16:07.243Z,6.13
2018-07-20T04:18:35.048Z,6.23
2018-07-20T04:21:02.810Z,6.60
2018-07-20T04:23:30.600Z,7.00
2018-07-20T04:25:58.433Z,6.97
2018-07-20T04:28:26.235Z,7.00
2018-07-20T04:30:54.031Z,6.50
2018-07-20T04:33:21.823Z,7.93
2018-07-20T04:35:49.735Z,6.13
2018-07-20T04:38:17.492Z,6.27
2018-07-20T04:40:45.263Z,7.67
2018-07-20T04:43:12.950Z,7.67
2018-07-20T04:45:40.727Z,6.17
2018-07-20T04:48:08.486Z,6.10
2018-07-20T04:50:36.325Z,7.30
2018-07-20T04:53:04.085Z,6.20
2018-07-20T04:55:31.868Z,6.83
2018-07-20T04:57:59.652Z,6.40
2018-07-20T05:00:27.340Z,6.30
2018-07-20T05:02:55.148Z,6.70
2018-07-20T05:05:22.910Z,6.83
2018-07-20T05:07:50.659Z,6.97
2018-07-20T05:10:18.491Z,6.60
2018-07-20T05:12:46.240Z,7.90
2018-07-20T05:15:14.072Z,8.00
2018-07-20T05:17:41.826Z,7.43
2018-07-20T05:20:09.704Z,6.00
2018-07-20T05:22:37.509Z,7.27
2018-07-20T05:25:05.411Z,6.97
2018-07-20T05:27:33.246Z,6.60
2018-07-20T05:30:00.968Z,6.60
2018-07-20T05:32:29.104Z,6.17
2018-07-20T05:34:57.175Z,6.63
2018-07-20T05:37:24.958Z,6.10
2018-07-20T05:39:52.796Z,6.33
2018-07-20T05:42:20.874Z,6.30
2018-07-20T05:44:48.759Z,6.60
2018-07-20T05:47:16.584Z,7.50
2018-07-20T05:49:44.367Z,7.80
2018-07-20T05:52:12.119Z,6.63
2018-07-20T05:54:39.877Z,7.43
2018-07-20T05:57:07.733Z,8.20
2018-07-20T05:59:35.539Z,6.30
2018-07-20T06:02:03.488Z,7.00
2018-07-20T06:04:31.278Z,6.93
2018-07-20T06:06:59.049Z,7.30
2018-07-20T06:09:26.855Z,7.17
2018-07-20T06:11:54.668Z,8.37
2018-07-20T06:14:22.442Z,7.90
2018-07-20T06:16:50.087Z,7.80
2018-07-20T06:19:18.118Z,6.93
2018-07-20T06:21:45.812Z,5.93
2018-07-20T06:24:13.604Z,5.93
2018-07-20T06:26:41.405Z,5.60
2018-07-20T06:29:09.164Z,5.80
2018-07-20T06:31:36.922Z,5.63
2018-07-20T06:34:04.680Z,6.30
2018-07-20T06:36:32.497Z,5.20
2018-07-20T06:39:00.297Z,5.87
2018-07-20T06:41:28.076Z,4.40
2018-07-20T06:43:55.872Z,4.87
2018-07-20T06:46:23.652Z,5.23
2018-07-20T06:48:51.439Z,4.93
2018-07-20T06:51:19.211Z,5.10
2018-07-20T06:53:46.876Z,4.80
2018-07-20T06:56:14.654Z,6.47
2018-07-20T06:58:42.418Z,4.47
2018-07-20T07:01:10.214Z,5.23
2018-07-20T07:03:38.002Z,5.70
2018-07-20T07:06:05.747Z,5.53
2018-07-20T07:08:33.432Z,4.60
2018-07-20T07:11:01.242Z,4.80
2018-07-20T07:13:29.082Z,4.77
2018-07-20T19:27:22.950Z,5.30
2018-07-20T19:29:50.762Z,4.80
2018-07-20T19:32:18.478Z,4.83
2018-07-20T19:34:46.210Z,4.80
2018-07-20T19:37:13.922Z,5.23
2018-07-20T19:39:41.705Z,4.63
2018-07-20T19:42:09.410Z,4.67
2018-07-20T19:44:37.161Z,4.40
2018-07-20T19:47:04.934Z,4.63
2018-07-20T19:49:32.693Z,4.70
2018-07-20T19:52:00.495Z,4.50
2018-07-20T19:54:28.178Z,5.10
2018-07-20T19:56:55.915Z,4.50
2018-07-20T19:59:23.662Z,4.03
2018-07-20T20:01:51.423Z,4.60
2018-07-20T20:04:19.277Z,6.80
2018-07-20T20:06:46.978Z,7.23
2018-07-20T20:09:14.786Z,5.17
2018-07-20T20:11:42.515Z,4.60
2018-07-20T20:14:10.358Z,5.00
2018-07-20T20:16:38.131Z,4.53
2018-07-20T20:19:05.966Z,4.50
2018-07-20T20:21:33.728Z,5.97
2018-07-20T20:24:01.514Z,5.47
2018-07-20T20:26:29.266Z,5.67
2018-07-20T20:28:57.004Z,5.50
2018-07-20T20:31:24.827Z,4.50
2018-07-20T20:33:52.764Z,4.80
2018-07-20T20:36:20.519Z,5.20
2018-07-20T20:38:48.300Z,5.00
2018-07-20T20:41:16.114Z,4.60
2018-07-20T20:43:43.925Z,5.70
2018-07-20T20:46:11.595Z,5.00
2018-07-20T20:48:39.274Z,5.60
2018-07-20T20:51:07.116Z,5.00
2018-07-20T20:53:34.815Z,4.17
2018-07-20T20:56:02.570Z,4.70
2018-07-20T20:58:30.356Z,5.40
2018-07-20T21:00:58.103Z,4.50
2018-07-20T21:03:25.926Z,4.53
2018-07-20T21:05:53.626Z,4.57
2018-07-20T21:08:21.398Z,5.10
2018-07-20T21:10:49.159Z,4.40
2018-07-20T21:13:16.877Z,5.07
2018-07-20T21:15:44.685Z,4.37
2018-07-20T21:18:12.387Z,4.77
2018-07-20T21:20:40.199Z,4.53
2018-07-20T21:23:07.919Z,4.73
2018-07-20T21:25:35.683Z,4.63
2018-07-20T21:28:03.511Z,5.43
2018-07-20T21:30:31.286Z,4.77
2018-07-20T21:32:58.985Z,5.60
2018-07-20T21:35:26.827Z,5.30
2018-07-20T21:37:54.672Z,5.60
2018-07-20T21:40:22.419Z,5.27
2018-07-20T21:42:50.351Z,5.87
2018-07-20T21:45:18.153Z,5.87
2018-07-20T21:47:45.803Z,4.97
2018-07-20T21:50:13.515Z,5.73
2018-07-20T21:52:41.212Z,5.00
2018-07-20T21:55:08.994Z,5.30
2018-07-20T21:57:36.839Z,5.27
2018-07-20T22:00:07.620Z,5.50
2018-07-20T22:02:35.369Z,5.83
2018-07-20T22:05:03.187Z,5.43
2018-07-20T22:07:30.942Z,5.20
2018-07-20T22:09:58.643Z,5.20
2018-07-20T22:12:26.368Z,5.43
2018-07-20T22:14:54.136Z,5.70
2018-07-20T22:17:21.906Z,6.00
2018-07-20T22:19:49.585Z,5.83
2018-07-20T22:22:17.311Z,5.80
2018-07-20T22:24:45.016Z,5.80
2018-07-20T22:27:12.781Z,5.47
2018-07-20T22:29:40.482Z,5.50
2018-07-20T22:32:08.246Z,4.90
2018-07-20T22:34:35.976Z,4.67
2018-07-20T22:37:03.850Z,6.00
2018-07-20T22:39:31.588Z,6.20
2018-07-20T22:41:59.350Z,4.57
2018-07-20T22:44:27.165Z,6.00
2018-07-20T22:46:54.856Z,4.80
2018-07-20T22:49:22.486Z,5.07
2018-07-20T22:51:50.234Z,5.20
2018-07-20T22:54:17.946Z,5.47
2018-07-20T22:56:45.690Z,5.80
2018-07-20T22:59:13.474Z,4.60
2018-07-20T23:01:41.254Z,6.03
2018-07-20T23:04:09.078Z,5.60
2018-07-20T23:06:36.871Z,4.93
2018-07-20T23:09:06.983Z,5.17
2018-07-20T23:11:34.694Z,4.90
2018-07-20T23:14:02.411Z,5.17
2018-07-20T23:16:30.107Z,4.57
2018-07-20T23:18:57.870Z,5.00
2018-07-20T23:21:25.595Z,5.10
2018-07-20T23:23:53.295Z,5.43
2018-07-20T23:26:21.006Z,5.40
2018-07-20T23:28:48.764Z,4.97
2018-07-20T23:31:16.636Z,5.83
2018-07-20T23:33:44.338Z,5.50
2018-07-20T23:36:12.094Z,5.53
2018-07-20T23:38:39.830Z,4.83
2018-07-20T23:41:07.606Z,4.80
2018-07-20T23:43:35.379Z,5.10
2018-07-20T23:46:03.110Z,4.73
2018-07-20T23:48:30.843Z,5.27
2018-07-20T23:50:58.546Z,4.13
2018-07-20T23:53:26.246Z,5.07
2018-07-20T23:55:53.931Z,5.43
2018-07-20T23:58:21.662Z,5.03
